createdAt,value
2019-03-20T00:01:18.872Z,19.77
2019-03-20T00:03:46.849Z,19.10
2019-03-20T00:06:14.909Z,21.77
2019-03-20T00:08:42.859Z,16.67
2019-03-20T00:11:10.823Z,15.80
2019-03-20T00:13:38.795Z,25.90
2019-03-20T00:16:06.761Z,25.72
2019-03-20T00:18:34.748Z,19.95
2019-03-20T00:21:02.708Z,17.50
2019-03-20T00:23:30.670Z,19.07
2019-03-20T00:25:58.677Z,15.32
2019-03-20T00:28:26.650Z,18.55
2019-03-20T00:30:54.628Z,19.27
2019-03-20T00:33:22.661Z,15.05
2019-03-20T00:35:50.659Z,20.23
2019-03-20T00:38:18.624Z,21.97
2019-03-20T00:40:46.594Z,17.17
2019-03-20T00:43:14.564Z,17.85
2019-03-20T00:45:42.524Z,22.95
2019-03-20T00:48:10.502Z,18.62
2019-03-20T00:50:38.459Z,18.62
2019-03-20T00:53:06.440Z,26.07
2019-03-20T00:55:34.446Z,19.32
2019-03-20T00:58:02.430Z,20.40
2019-03-20T01:00:30.401Z,19.05
2019-03-20T01:02:58.367Z,23.67
2019-03-20T01:05:26.332Z,20.27
2019-03-20T01:07:54.334Z,30.97
2019-03-20T01:10:22.852Z,14.58
2019-03-20T01:12:50.816Z,15.50
2019-03-20T01:15:18.788Z,23.15
2019-03-20T01:17:46.766Z,15.50
2019-03-20T01:20:16.531Z,14.60
2019-03-20T01:22:44.521Z,16.93
2019-03-20T01:25:12.470Z,15.35
2019-03-20T01:27:40.445Z,17.40
2019-03-20T01:30:11.822Z,17.50
2019-03-20T01:32:39.797Z,24.25
2019-03-20T01:35:07.760Z,28.57
2019-03-20T01:37:35.732Z,20.20
2019-03-20T01:40:04.569Z,19.55
2019-03-20T01:42:32.551Z,25.45
2019-03-20T01:45:00.604Z,15.15
2019-03-20T01:47:28.640Z,20.35
2019-03-20T01:49:56.604Z,18.48
2019-03-20T01:52:24.566Z,12.53
2019-03-20T01:54:52.551Z,19.30
2019-03-20T01:57:20.508Z,25.55
2019-03-20T01:59:48.492Z,19.70
2019-03-20T02:02:16.474Z,21.40
2019-03-20T02:04:44.468Z,17.77
2019-03-20T02:07:12.435Z,21.40
2019-03-20T02:09:40.429Z,20.40
2019-03-20T02:12:08.388Z,16.37
2019-03-20T02:14:36.373Z,27.70
2019-03-20T02:17:04.345Z,16.10
2019-03-20T02:19:32.308Z,21.37
2019-03-20T02:22:00.308Z,30.60
2019-03-20T02:24:28.287Z,34.10
2019-03-20T02:26:56.272Z,27.00
2019-03-20T02:29:24.235Z,19.73
2019-03-20T02:31:52.224Z,19.67
2019-03-20T02:34:20.195Z,17.77
2019-03-20T02:36:48.165Z,24.70
2019-03-20T02:39:16.192Z,20.82
2019-03-20T02:41:44.173Z,12.25
2019-03-20T02:44:12.140Z,18.17
2019-03-20T02:46:40.116Z,20.25
2019-03-20T02:49:08.094Z,27.55
2019-03-20T02:51:36.063Z,16.52
2019-03-20T02:54:04.076Z,40.63
2019-03-20T02:56:32.042Z,31.75
2019-03-20T02:59:00.037Z,24.40
2019-03-20T03:01:28.002Z,28.52
2019-03-20T03:03:55.964Z,29.07
2019-03-20T03:06:23.944Z,19.10
2019-03-20T03:08:51.948Z,23.52
2019-03-20T03:11:19.972Z,17.85
2019-03-20T03:13:47.936Z,18.77
2019-03-20T03:16:15.908Z,25.20
2019-03-20T03:18:43.868Z,19.95
2019-03-20T03:21:11.854Z,23.30
2019-03-20T03:23:39.819Z,17.05
2019-03-20T03:26:07.808Z,16.95
2019-03-20T03:28:35.787Z,16.97
2019-03-20T03:31:03.771Z,27.62
2019-03-20T03:33:31.802Z,22.32
2019-03-20T03:35:59.776Z,33.65
2019-03-20T03:38:27.743Z,28.10
2019-03-20T03:40:55.717Z,23.90
2019-03-20T03:43:24.546Z,19.32
2019-03-20T03:45:52.744Z,20.55
2019-03-20T03:48:20.711Z,18.37
2019-03-20T03:50:48.685Z,21.57
2019-03-20T03:53:16.686Z,26.10
2019-03-20T03:55:44.640Z,13.13
2019-03-20T03:58:12.634Z,25.12
2019-03-20T04:00:40.613Z,19.90
2019-03-20T04:03:08.572Z,12.95
2019-03-20T04:05:36.551Z,20.62
2019-03-20T04:08:04.523Z,32.17
2019-03-20T04:10:32.507Z,24.35
2019-03-20T04:13:00.478Z,27.70
2019-03-20T04:15:28.453Z,21.73
2019-03-20T04:17:56.421Z,23.50
2019-03-20T04:20:24.422Z,21.05
2019-03-20T04:22:52.401Z,20.95
2019-03-20T04:25:20.384Z,20.40
2019-03-20T04:27:48.385Z,22.13
2019-03-20T04:30:18.026Z,19.87
2019-03-20T04:32:46.001Z,19.25
2019-03-20T04:35:13.977Z,24.87
2019-03-20T04:37:41.936Z,21.30
2019-03-20T04:40:11.540Z,13.45
2019-03-20T04:42:39.515Z,16.60
2019-03-20T04:45:08.862Z,29.27
2019-03-20T04:47:36.827Z,34.88
2019-03-20T04:50:06.387Z,33.85
2019-03-20T04:52:34.353Z,28.30
2019-03-20T04:55:02.331Z,25.27
2019-03-20T04:57:30.317Z,18.77
2019-03-20T04:59:58.286Z,23.07
2019-03-20T05:02:26.245Z,33.63
2019-03-20T05:04:54.343Z,36.40
2019-03-20T05:07:22.663Z,25.17
2019-03-20T05:09:50.739Z,17.25
2019-03-20T05:12:19.280Z,33.05
2019-03-20T05:14:47.278Z,36.40
2019-03-20T05:17:15.313Z,28.20
2019-03-20T05:19:43.333Z,35.25
2019-03-20T05:22:11.314Z,36.28
2019-03-20T05:24:39.287Z,40.65
2019-03-20T05:27:07.260Z,29.05
2019-03-20T05:29:35.246Z,22.45
2019-03-20T05:32:03.210Z,38.13
2019-03-20T05:34:31.191Z,28.75
2019-03-20T05:37:09.566Z,20.15
2019-03-20T05:39:28.860Z,22.27
2019-03-20T05:41:56.839Z,34.40
2019-03-20T05:44:24.806Z,24.90
2019-03-20T05:46:52.807Z,28.70
2019-03-20T05:49:20.774Z,18.65
2019-03-20T05:51:48.754Z,24.15
2019-03-20T05:54:16.715Z,20.57
2019-03-20T05:56:44.700Z,21.85
2019-03-20T05:59:12.686Z,26.87
2019-03-20T06:01:40.664Z,24.77
2019-03-20T06:04:08.631Z,26.80
2019-03-20T06:06:36.611Z,27.60
2019-03-20T06:09:05.854Z,26.65
2019-03-20T06:11:33.820Z,23.80
2019-03-20T06:14:01.795Z,25.48
2019-03-20T06:16:29.763Z,23.32
2019-03-20T06:18:57.745Z,25.95
2019-03-20T06:21:25.712Z,23.67
2019-03-20T06:23:53.691Z,15.80
2019-03-20T06:26:21.652Z,17.77
2019-03-20T06:28:49.639Z,22.58
2019-03-20T06:31:18.839Z,15.35
2019-03-20T06:33:46.935Z,20.15
2019-03-20T06:36:14.919Z,16.75
2019-03-20T06:38:42.887Z,19.10
2019-03-20T06:41:10.848Z,16.50
2019-03-20T06:43:38.823Z,14.70
2019-03-20T06:46:06.787Z,18.30
2019-03-20T06:48:34.769Z,19.50
2019-03-20T06:51:02.736Z,18.50
2019-03-20T06:53:30.709Z,15.83
2019-03-20T06:55:58.670Z,18.35
2019-03-20T06:58:26.635Z,13.28
2019-03-20T07:00:58.947Z,17.52
2019-03-20T07:03:31.455Z,14.87
2019-03-20T07:06:06.735Z,15.85
2019-03-20T07:08:36.335Z,12.73
2019-03-20T07:11:08.285Z,19.05
2019-03-20T07:13:36.250Z,14.80
2019-03-20T07:16:04.479Z,15.48
2019-03-20T07:18:32.516Z,16.73
2019-03-20T07:21:00.506Z,15.75
2019-03-20T07:23:28.483Z,16.90
2019-03-20T07:25:56.455Z,18.70
2019-03-20T07:28:24.419Z,13.00
2019-03-20T07:30:52.387Z,16.42
2019-03-20T07:33:20.350Z,17.25
2019-03-20T07:35:48.328Z,25.10
2019-03-20T07:38:16.308Z,26.80
2019-03-20T07:40:44.282Z,27.25
2019-03-20T07:43:12.319Z,20.23
2019-03-20T07:45:40.313Z,19.32
2019-03-20T07:48:08.264Z,14.28
2019-03-20T07:50:36.233Z,15.88
2019-03-20T07:53:04.199Z,14.93
2019-03-20T07:55:32.179Z,14.13
2019-03-20T07:58:00.143Z,13.98
2019-03-20T08:00:28.122Z,14.07
2019-03-20T08:02:56.082Z,15.65
2019-03-20T08:05:29.288Z,13.95
2019-03-20T08:07:54.063Z,13.72
2019-03-20T08:10:22.051Z,11.60
2019-03-20T08:12:50.038Z,12.43
2019-03-20T08:15:18.081Z,16.25
2019-03-20T08:17:46.047Z,11.78
2019-03-20T08:20:21.184Z,14.98
2019-03-20T08:22:49.151Z,12.23
2019-03-20T08:25:17.167Z,16.35
2019-03-20T08:27:45.148Z,12.45
2019-03-20T08:30:14.382Z,10.85
2019-03-20T08:32:42.339Z,15.43
2019-03-20T08:35:11.092Z,13.55
2019-03-20T08:37:39.064Z,12.10
2019-03-20T08:40:08.595Z,15.10
2019-03-20T08:42:36.566Z,16.33
2019-03-20T08:45:05.912Z,15.20
2019-03-20T08:47:33.860Z,16.80
2019-03-20T08:50:01.831Z,17.67
2019-03-20T08:52:29.821Z,16.12
2019-03-20T08:54:57.798Z,15.23
2019-03-20T08:57:25.775Z,16.57
2019-03-20T08:59:53.752Z,16.60
2019-03-20T09:02:21.731Z,13.58
2019-03-20T09:04:49.679Z,14.45
2019-03-20T09:07:17.665Z,11.45
2019-03-20T09:09:45.642Z,13.55
2019-03-20T09:12:13.612Z,18.30
2019-03-20T09:14:41.583Z,17.60
2019-03-20T09:17:09.547Z,15.78
2019-03-20T09:19:37.551Z,14.58
2019-03-20T09:22:05.499Z,17.15
2019-03-20T09:24:33.478Z,14.10
2019-03-20T09:27:01.451Z,13.32
2019-03-20T09:29:35.949Z,12.93
2019-03-20T09:31:59.124Z,12.10
2019-03-20T09:34:27.105Z,13.15
2019-03-20T09:36:55.060Z,15.48
2019-03-20T09:39:23.011Z,14.35
2019-03-20T09:41:50.984Z,15.55
2019-03-20T09:44:18.977Z,13.58
2019-03-20T09:46:46.948Z,14.40
2019-03-20T09:49:14.911Z,11.33
2019-03-20T09:51:42.903Z,12.23
2019-03-20T09:54:10.901Z,17.12
2019-03-20T09:56:38.863Z,9.68
2019-03-20T09:59:06.840Z,13.70
2019-03-20T10:01:34.838Z,10.60
2019-03-20T10:04:02.803Z,19.27
2019-03-20T10:06:30.769Z,10.98
2019-03-20T10:08:58.766Z,12.65
2019-03-20T10:11:26.775Z,11.40
2019-03-20T10:13:54.738Z,10.08
2019-03-20T10:16:22.818Z,10.90
2019-03-20T10:18:50.810Z,13.98
2019-03-20T10:21:18.801Z,12.35
2019-03-20T10:23:46.801Z,12.25
2019-03-20T10:26:14.779Z,13.22
2019-03-20T10:28:42.750Z,14.33
2019-03-20T10:31:10.772Z,12.43
2019-03-20T10:33:38.740Z,10.78
2019-03-20T10:36:07.616Z,18.02
2019-03-20T10:38:35.679Z,17.00
2019-03-20T10:41:03.653Z,13.00
2019-03-20T10:43:31.635Z,12.75
2019-03-20T10:45:59.614Z,14.33
2019-03-20T10:48:27.621Z,15.45
2019-03-20T10:50:55.563Z,10.98
2019-03-20T10:53:23.546Z,14.87
2019-03-20T10:55:51.995Z,13.00
2019-03-20T10:58:20.160Z,14.55
2019-03-20T11:00:48.155Z,15.98
2019-03-20T11:03:16.125Z,14.90
2019-03-20T11:05:44.121Z,13.10
2019-03-20T11:08:13.128Z,11.38
2019-03-20T11:10:41.425Z,14.65
2019-03-20T11:13:09.505Z,13.83
2019-03-20T11:15:37.475Z,14.55
2019-03-20T11:18:05.479Z,12.50
2019-03-20T11:20:33.590Z,12.43
2019-03-20T11:23:01.545Z,11.28
2019-03-20T11:25:29.532Z,14.07
2019-03-20T11:27:57.564Z,13.35
2019-03-20T11:30:32.049Z,15.05
2019-03-20T11:33:00.015Z,10.15
2019-03-20T11:35:28.007Z,14.70
2019-03-20T11:37:55.978Z,11.33
2019-03-20T11:40:24.720Z,9.98
2019-03-20T11:42:52.713Z,13.35
2019-03-20T11:45:23.298Z,12.58
2019-03-20T11:47:50.465Z,11.25
2019-03-20T11:50:25.740Z,12.40
2019-03-20T11:52:53.728Z,10.78
2019-03-20T11:55:21.719Z,15.63
2019-03-20T11:57:49.726Z,11.00
2019-03-20T12:00:20.932Z,8.65
2019-03-20T12:02:48.901Z,11.57
2019-03-20T12:05:16.872Z,9.00
2019-03-20T12:07:44.836Z,9.15
2019-03-20T12:10:17.472Z,10.80
2019-03-20T12:12:45.453Z,13.00
2019-03-20T12:15:34.370Z,9.48
2019-03-20T12:18:02.472Z,10.05
2019-03-20T12:20:30.441Z,12.35
2019-03-20T12:22:58.402Z,10.78
2019-03-20T12:25:27.146Z,8.35
2019-03-20T12:27:55.132Z,10.60
2019-03-20T12:30:33.785Z,12.80
2019-03-20T12:33:01.757Z,8.58
2019-03-20T12:35:31.295Z,12.45
2019-03-20T12:37:59.277Z,12.23
2019-03-20T12:40:28.122Z,8.15
2019-03-20T12:42:56.115Z,13.70
2019-03-20T12:45:25.034Z,11.57
2019-03-20T12:47:53.016Z,12.50
2019-03-20T12:50:20.980Z,10.72
2019-03-20T12:52:48.963Z,11.68
2019-03-20T12:55:17.600Z,10.38
2019-03-20T12:57:45.570Z,8.55
2019-03-20T13:00:14.769Z,9.43
2019-03-20T13:02:42.763Z,9.55
2019-03-20T13:05:11.599Z,8.40
2019-03-20T13:07:39.579Z,9.18
2019-03-20T13:10:09.108Z,10.55
2019-03-20T13:12:37.162Z,9.00
2019-03-20T13:15:06.821Z,8.43
2019-03-20T13:17:34.783Z,9.70
2019-03-20T13:20:03.660Z,7.62
2019-03-20T13:22:31.631Z,10.80
2019-03-20T13:24:59.617Z,10.55
2019-03-20T13:27:27.593Z,11.78
2019-03-20T13:29:55.572Z,7.65
2019-03-20T13:32:23.558Z,9.33
2019-03-20T13:34:51.721Z,11.80
2019-03-20T13:37:19.722Z,8.80
2019-03-20T13:39:47.690Z,8.65
2019-03-20T13:42:15.656Z,8.45
2019-03-20T13:44:43.945Z,10.25
2019-03-20T13:47:11.892Z,9.13
2019-03-20T13:49:39.857Z,6.28
2019-03-20T13:52:07.935Z,10.70
2019-03-20T13:54:35.948Z,8.75
2019-03-20T13:57:03.931Z,10.72
2019-03-20T13:59:31.895Z,7.55
2019-03-20T14:01:59.888Z,12.18
2019-03-20T14:04:27.888Z,8.73
2019-03-20T14:06:55.856Z,9.28
2019-03-20T14:09:23.907Z,8.08
2019-03-20T14:11:51.955Z,8.43
2019-03-20T14:14:19.987Z,6.92
2019-03-20T14:16:48.025Z,7.10
2019-03-20T14:19:16.103Z,9.58
2019-03-20T14:21:44.059Z,9.73
2019-03-20T14:24:12.042Z,5.35
2019-03-20T14:26:40.037Z,5.72
2019-03-20T14:29:08.004Z,9.80
2019-03-20T14:31:36.139Z,10.85
2019-03-20T14:34:04.100Z,10.25
2019-03-20T14:36:32.083Z,9.20
2019-03-20T14:39:00.661Z,7.47
2019-03-20T14:41:28.748Z,7.75
2019-03-20T14:43:56.715Z,7.42
2019-03-20T14:46:24.683Z,8.53
2019-03-20T14:48:52.667Z,8.15
2019-03-20T14:51:20.627Z,9.48
2019-03-20T14:53:48.604Z,8.60
2019-03-20T14:56:18.238Z,9.08
2019-03-20T14:58:46.436Z,10.18
2019-03-20T15:01:14.410Z,7.75
2019-03-20T15:03:42.376Z,9.95
2019-03-20T15:06:10.366Z,8.50
2019-03-20T15:08:38.312Z,9.08
2019-03-20T15:11:06.288Z,15.38
2019-03-20T15:13:37.208Z,8.80
2019-03-20T15:16:06.803Z,9.90
2019-03-20T15:18:34.773Z,9.18
2019-03-20T15:21:02.758Z,7.37
2019-03-20T15:23:30.723Z,7.65
2019-03-20T15:25:58.744Z,11.88
2019-03-20T15:28:26.704Z,7.53
2019-03-20T15:30:54.680Z,9.18
2019-03-20T15:33:22.651Z,7.83
2019-03-20T15:35:50.618Z,6.80
2019-03-20T15:38:18.604Z,8.10
2019-03-20T15:40:55.898Z,10.25
2019-03-20T15:43:16.263Z,5.50
2019-03-20T15:45:44.248Z,7.90
2019-03-20T15:48:12.220Z,7.17
2019-03-20T15:50:40.203Z,12.47
2019-03-20T15:53:08.182Z,11.08
2019-03-20T15:55:37.264Z,9.20
2019-03-20T15:58:05.241Z,7.83
2019-03-20T16:00:33.295Z,10.80
2019-03-20T16:03:08.854Z,9.58
2019-03-20T16:05:36.833Z,6.97
2019-03-20T16:08:04.867Z,8.13
2019-03-20T16:10:32.838Z,8.10
2019-03-20T16:13:00.800Z,7.80
2019-03-20T16:15:28.775Z,11.78
2019-03-20T16:17:56.745Z,8.53
2019-03-20T16:20:24.721Z,9.80
2019-03-20T16:22:52.692Z,7.53
2019-03-20T16:25:22.335Z,14.15
2019-03-20T16:27:50.353Z,14.13
2019-03-20T16:30:19.080Z,13.38
2019-03-20T16:32:47.056Z,14.18
2019-03-20T16:35:15.017Z,12.90
2019-03-20T16:37:42.987Z,13.43
2019-03-20T16:40:17.792Z,9.85
2019-03-20T16:42:45.775Z,15.98
2019-03-20T16:45:15.141Z,13.13
2019-03-20T16:47:43.211Z,11.05
2019-03-20T16:50:12.704Z,20.20
2019-03-20T16:52:40.692Z,13.25
2019-03-20T16:55:09.960Z,16.07
2019-03-20T16:57:38.518Z,12.20
2019-03-20T17:00:14.188Z,11.88
2019-03-20T17:02:42.198Z,17.73
2019-03-20T17:05:10.217Z,16.50
2019-03-20T17:07:38.216Z,10.93
2019-03-20T17:10:16.999Z,13.20
2019-03-20T17:12:45.098Z,14.07
2019-03-20T17:15:14.660Z,14.40
2019-03-20T17:17:42.788Z,12.68
2019-03-20T17:20:10.883Z,11.20
2019-03-20T17:22:42.112Z,12.63
2019-03-20T17:25:09.571Z,15.55
2019-03-20T17:27:37.773Z,10.50
2019-03-20T17:30:10.225Z,9.53
2019-03-20T17:32:38.600Z,9.90
2019-03-20T17:35:09.243Z,9.10
2019-03-20T17:40:07.958Z,13.58
2019-03-20T17:42:35.934Z,14.30
2019-03-20T17:45:05.815Z,15.48
2019-03-20T17:47:33.871Z,11.33
2019-03-20T17:50:02.181Z,14.50
2019-03-20T17:52:30.876Z,16.90
2019-03-20T17:54:59.054Z,13.38
2019-03-20T17:57:27.180Z,11.38
2019-03-20T17:59:55.211Z,15.35
2019-03-20T18:02:24.262Z,15.03
2019-03-20T18:04:52.782Z,14.55
2019-03-20T18:07:20.933Z,100.90
2019-03-20T18:09:49.036Z,63.17
2019-03-20T18:12:17.047Z,34.83
2019-03-20T18:14:44.998Z,19.55
2019-03-20T18:17:13.085Z,16.37
2019-03-20T18:19:41.118Z,11.97
2019-03-20T18:22:12.801Z,15.13
2019-03-20T18:24:41.445Z,19.10
2019-03-20T18:27:09.542Z,16.02
2019-03-20T18:29:37.604Z,12.60
2019-03-20T18:32:05.656Z,17.95
2019-03-20T18:34:33.652Z,17.35
2019-03-20T18:37:01.625Z,14.98
2019-03-20T18:39:29.587Z,13.45
2019-03-20T18:41:58.124Z,20.68
2019-03-20T18:44:26.224Z,13.08
2019-03-20T18:46:54.205Z,14.60
2019-03-20T18:49:22.159Z,8.45
2019-03-20T18:51:50.136Z,28.90
2019-03-20T18:54:18.099Z,14.05
2019-03-20T18:56:46.077Z,16.77
2019-03-20T18:59:14.047Z,13.40
2019-03-20T19:01:42.031Z,13.43
2019-03-20T19:04:09.992Z,12.98
2019-03-20T19:06:38.048Z,13.75
2019-03-20T19:09:07.757Z,12.10
2019-03-20T19:11:35.811Z,14.47
2019-03-20T19:14:03.946Z,18.92
2019-03-20T19:16:31.928Z,19.25
2019-03-20T19:19:01.117Z,10.93
2019-03-20T19:21:29.051Z,17.45
2019-03-20T19:23:57.319Z,16.00
2019-03-20T19:26:25.305Z,20.75
2019-03-20T19:28:53.937Z,16.85
2019-03-20T19:31:21.908Z,17.00
2019-03-20T19:33:49.877Z,15.28
2019-03-20T19:36:17.843Z,17.62
2019-03-20T19:38:45.835Z,12.90
2019-03-20T19:41:13.805Z,17.62
2019-03-20T19:43:41.792Z,14.15
2019-03-20T19:46:09.755Z,22.13
2019-03-20T19:48:37.727Z,16.00
2019-03-20T19:51:05.701Z,13.40
2019-03-20T19:53:33.670Z,18.32
2019-03-20T19:56:02.030Z,13.75
2019-03-20T19:58:30.024Z,13.08
2019-03-20T20:00:57.999Z,16.30
2019-03-20T20:03:25.976Z,15.68
2019-03-20T20:05:53.941Z,15.93
2019-03-20T20:08:21.968Z,17.52
2019-03-20T20:10:49.899Z,17.37
2019-03-20T20:13:17.905Z,17.12
2019-03-20T20:15:45.860Z,16.30
2019-03-20T20:18:13.831Z,18.12
2019-03-20T20:20:41.801Z,14.45
2019-03-20T20:23:09.777Z,25.32
2019-03-20T20:25:37.749Z,19.67
2019-03-20T20:28:05.724Z,18.27
2019-03-20T20:30:33.763Z,19.05
2019-03-20T20:33:01.771Z,19.55
2019-03-20T20:35:29.799Z,22.22
2019-03-20T20:37:57.789Z,20.52
2019-03-20T20:40:28.858Z,21.27
2019-03-20T20:42:56.823Z,18.42
2019-03-20T20:45:24.801Z,22.42
2019-03-20T20:47:52.774Z,18.25
2019-03-20T20:50:20.760Z,18.87
2019-03-20T20:52:48.767Z,23.32
2019-03-20T20:55:17.478Z,15.68
2019-03-20T20:57:45.497Z,23.73
2019-03-20T21:00:14.842Z,26.27
2019-03-20T21:02:42.808Z,28.42
2019-03-20T21:05:10.795Z,36.38
2019-03-20T21:07:38.782Z,26.62
2019-03-20T21:10:08.411Z,30.50
2019-03-20T21:12:36.396Z,31.30
2019-03-20T21:15:05.235Z,28.40
2019-03-20T21:17:34.848Z,25.77
2019-03-20T21:20:03.083Z,33.50
2019-03-20T21:22:32.707Z,24.45
2019-03-20T21:25:00.678Z,28.57
2019-03-20T21:27:46.819Z,20.17
2019-03-20T21:30:32.799Z,25.45
2019-03-20T21:33:06.356Z,24.87
2019-03-20T21:35:52.638Z,21.55
2019-03-20T21:38:20.586Z,24.37
2019-03-20T21:40:53.307Z,22.90
2019-03-20T21:43:32.174Z,27.20
2019-03-20T21:46:04.745Z,25.97
2019-03-20T21:48:32.871Z,22.65
2019-03-20T21:51:02.534Z,24.15
2019-03-20T21:53:38.445Z,26.87
2019-03-20T21:56:17.115Z,23.85
2019-03-20T21:58:47.037Z,30.52
2019-03-20T22:01:16.730Z,29.50
2019-03-20T22:03:44.813Z,26.70
2019-03-20T22:06:32.982Z,24.10
2019-03-20T22:09:01.421Z,23.95
2019-03-20T22:11:31.015Z,18.02
2019-03-20T22:14:15.667Z,15.75
2019-03-20T22:17:02.115Z,17.05
2019-03-20T22:19:31.736Z,28.07
2019-03-20T22:22:19.643Z,22.05
2019-03-20T22:25:06.043Z,28.98
2019-03-20T22:27:41.363Z,22.30
2019-03-20T22:30:09.343Z,24.02
2019-03-20T22:32:38.938Z,19.73
2019-03-20T22:35:26.580Z,11.68
2019-03-20T22:37:55.447Z,17.73
2019-03-20T22:40:27.972Z,20.23
2019-03-20T22:43:00.495Z,17.05
2019-03-20T22:45:46.828Z,19.95
2019-03-20T22:48:33.086Z,16.52
2019-03-20T22:51:02.694Z,20.00
2019-03-20T22:53:37.989Z,22.70
2019-03-20T22:56:13.595Z,18.10
2019-03-20T22:58:41.195Z,18.80
2019-03-20T23:01:10.399Z,21.12
2019-03-20T23:03:40.008Z,15.53
2019-03-20T23:06:07.972Z,22.17
2019-03-20T23:08:35.960Z,18.67
2019-03-20T23:11:03.983Z,15.32
2019-03-20T23:13:41.101Z,15.05
2019-03-20T23:16:01.716Z,20.97
2019-03-20T23:18:29.755Z,16.10
2019-03-20T23:20:57.725Z,18.07
2019-03-20T23:23:25.772Z,15.15
2019-03-20T23:25:53.735Z,19.65
2019-03-20T23:28:21.780Z,15.18
2019-03-20T23:30:49.950Z,82.47
2019-03-20T23:33:17.903Z,49.65
2019-03-20T23:35:45.896Z,17.15
2019-03-20T23:38:13.948Z,15.68
2019-03-20T23:40:42.084Z,23.42
2019-03-20T23:43:11.331Z,17.98
2019-03-20T23:45:39.308Z,22.60
2019-03-20T23:48:15.140Z,16.55
2019-03-20T23:50:43.233Z,14.85
2019-03-20T23:53:11.196Z,18.73
2019-03-20T23:55:39.171Z,34.20
2019-03-20T23:58:07.151Z,26.90
